createdAt,value
2017-09-18T00:00:28.549Z,951.56
2017-09-18T00:01:28.534Z,951.57
2017-09-18T00:02:28.522Z,951.58
2017-09-18T00:03:28.508Z,951.58
2017-09-18T00:04:28.494Z,951.57
2017-09-18T00:05:28.481Z,951.57
2017-09-18T00:06:28.469Z,951.55
2017-09-18T00:07:28.454Z,951.59
2017-09-18T00:08:28.442Z,951.55
2017-09-18T00:09:28.428Z,951.55
2017-09-18T00:10:28.415Z,951.56
2017-09-18T00:11:28.402Z,951.54
2017-09-18T00:12:28.388Z,951.52
2017-09-18T00:13:28.375Z,951.5
2017-09-18T00:14:28.371Z,951.53
2017-09-18T00:15:28.349Z,951.52
2017-09-18T00:16:28.334Z,951.53
2017-09-18T00:17:28.321Z,951.46
2017-09-18T00:18:28.307Z,951.53
2017-09-18T00:19:28.294Z,951.49
2017-09-18T00:20:28.299Z,951.5
2017-09-18T00:21:28.266Z,951.44
2017-09-18T00:22:28.253Z,951.44
2017-09-18T00:23:28.240Z,951.43
2017-09-18T00:24:28.227Z,951.45
2017-09-18T00:25:28.233Z,951.5
2017-09-18T00:26:28.200Z,951.45
2017-09-18T00:27:28.187Z,951.49
2017-09-18T00:28:28.173Z,951.48
2017-09-18T00:29:28.160Z,951.47
2017-09-18T00:30:28.166Z,951.45
2017-09-18T00:31:28.134Z,951.49
2017-09-18T00:32:28.120Z,951.48
2017-09-18T00:33:28.106Z,951.53
2017-09-18T00:34:28.104Z,951.5
2017-09-18T00:35:28.080Z,951.48
2017-09-18T00:36:28.065Z,951.53
2017-09-18T00:37:28.052Z,951.49
2017-09-18T00:38:28.040Z,951.52
2017-09-18T00:39:28.026Z,951.51
2017-09-18T00:40:28.023Z,951.52
2017-09-18T00:41:28.000Z,951.5
2017-09-18T00:42:27.987Z,951.49
2017-09-18T00:43:27.972Z,951.46
2017-09-18T00:44:27.961Z,951.5
2017-09-18T00:45:27.952Z,951.49
2017-09-18T00:46:27.933Z,951.49
2017-09-18T00:47:27.919Z,951.52
2017-09-18T00:48:27.914Z,951.47
2017-09-18T00:49:27.899Z,951.48
2017-09-18T00:50:27.880Z,951.5
2017-09-18T00:51:27.865Z,951.46
2017-09-18T00:52:27.851Z,951.5
2017-09-18T00:53:27.837Z,951.48
2017-09-18T00:54:27.834Z,951.47
2017-09-18T00:55:27.811Z,951.5
2017-09-18T00:56:27.797Z,951.48
2017-09-18T00:57:27.783Z,951.46
2017-09-18T00:58:27.770Z,951.49
2017-09-18T00:59:27.757Z,951.49
2017-09-18T01:00:27.761Z,951.53
2017-09-18T01:01:27.729Z,951.54
2017-09-18T01:02:27.715Z,951.49
2017-09-18T01:03:27.702Z,951.54
2017-09-18T01:04:27.689Z,951.54
2017-09-18T01:05:27.674Z,951.54
2017-09-18T01:06:27.662Z,951.56
2017-09-18T01:07:27.647Z,951.53
2017-09-18T01:08:27.635Z,951.55
2017-09-18T01:09:27.621Z,951.52
2017-09-18T01:10:27.606Z,951.55
2017-09-18T01:11:27.594Z,951.52
2017-09-18T01:12:27.598Z,951.53
2017-09-18T01:13:27.572Z,951.49
2017-09-18T01:14:27.581Z,951.5
2017-09-18T01:15:27.539Z,951.51
2017-09-18T01:16:27.526Z,951.54
2017-09-18T01:17:27.515Z,951.55
2017-09-18T01:18:27.498Z,951.55
2017-09-18T01:19:27.484Z,951.54
2017-09-18T01:20:27.471Z,951.5
2017-09-18T01:21:27.458Z,951.55
2017-09-18T01:22:27.445Z,951.57
2017-09-18T01:23:27.431Z,951.59
2017-09-18T01:24:27.418Z,951.54
2017-09-18T01:25:27.413Z,951.62
2017-09-18T01:26:27.393Z,951.58
2017-09-18T01:27:27.376Z,951.54
2017-09-18T01:28:27.364Z,951.59
2017-09-18T01:29:27.351Z,951.54
2017-09-18T01:30:27.338Z,951.5
2017-09-18T01:31:27.324Z,951.52
2017-09-18T01:32:27.311Z,951.49
2017-09-18T01:33:27.299Z,951.48
2017-09-18T01:34:27.282Z,951.46
2017-09-18T01:35:27.270Z,951.48
2017-09-18T01:36:27.256Z,951.46
2017-09-18T01:37:27.244Z,951.48
2017-09-18T01:38:27.241Z,951.47
2017-09-18T01:39:27.217Z,951.45
2017-09-18T01:40:27.204Z,951.48
2017-09-18T01:41:27.190Z,951.49
2017-09-18T01:42:27.176Z,951.45
2017-09-18T01:43:27.162Z,951.44
2017-09-18T01:44:27.197Z,951.48
2017-09-18T01:45:27.186Z,951.48
2017-09-18T01:46:27.207Z,951.46
2017-09-18T01:47:27.160Z,951.47
2017-09-18T01:48:27.471Z,951.44
2017-09-18T01:49:27.127Z,951.48
2017-09-18T01:50:27.108Z,951.45
2017-09-18T01:51:27.106Z,951.47
2017-09-18T01:52:27.104Z,951.49
2017-09-18T01:53:27.083Z,951.5
2017-09-18T01:54:27.120Z,951.49
2017-09-18T01:55:27.060Z,951.49
2017-09-18T01:56:27.042Z,951.51
2017-09-18T01:57:27.016Z,951.5
2017-09-18T01:58:27.030Z,951.49
2017-09-18T01:59:27.013Z,951.55
2017-09-18T02:00:27.047Z,951.52
2017-09-18T02:01:26.986Z,951.47
2017-09-18T02:02:26.911Z,951.47
2017-09-18T02:03:26.898Z,951.47
2017-09-18T02:04:26.887Z,951.45
2017-09-18T02:05:26.870Z,951.43
2017-09-18T02:06:26.960Z,951.4
2017-09-18T02:07:26.873Z,951.43
2017-09-18T02:08:26.829Z,951.39
2017-09-18T02:09:26.816Z,951.39
2017-09-18T02:10:26.803Z,951.4
2017-09-18T02:11:26.829Z,951.4
2017-09-18T02:12:26.777Z,951.4
2017-09-18T02:13:26.769Z,951.39
2017-09-18T02:14:26.830Z,951.41
2017-09-18T02:15:26.748Z,951.4
2017-09-18T02:16:26.723Z,951.36
2017-09-18T02:17:26.710Z,951.37
2017-09-18T02:18:26.697Z,951.37
2017-09-18T02:19:26.683Z,951.36
2017-09-18T02:20:26.671Z,951.36
2017-09-18T02:21:26.673Z,951.41
2017-09-18T02:22:26.643Z,951.38
2017-09-18T02:23:26.630Z,951.37
2017-09-18T02:24:26.633Z,951.37
2017-09-18T02:25:26.603Z,951.34
2017-09-18T02:26:26.589Z,951.4
2017-09-18T02:27:26.575Z,951.36
2017-09-18T02:28:26.562Z,951.38
2017-09-18T02:29:26.561Z,951.37
2017-09-18T02:30:26.535Z,951.4
2017-09-18T02:31:26.522Z,951.37
2017-09-18T02:32:26.509Z,951.38
2017-09-18T02:33:26.495Z,951.41
2017-09-18T02:34:26.482Z,951.4
2017-09-18T02:35:26.467Z,951.44
2017-09-18T02:36:26.465Z,951.39
2017-09-18T02:37:26.441Z,951.41
2017-09-18T02:38:26.426Z,951.41
2017-09-18T02:39:26.436Z,951.42
2017-09-18T02:40:26.399Z,951.45
2017-09-18T02:41:26.386Z,951.45
2017-09-18T02:42:26.394Z,951.47
2017-09-18T02:43:26.359Z,951.48
2017-09-18T02:44:26.346Z,951.46
2017-09-18T02:45:26.332Z,951.49
2017-09-18T02:46:26.318Z,951.51
2017-09-18T02:47:26.327Z,951.51
2017-09-18T02:48:26.290Z,951.48
2017-09-18T02:49:26.277Z,951.52
2017-09-18T02:50:26.264Z,951.5
2017-09-18T02:51:26.257Z,951.44
2017-09-18T02:52:26.236Z,951.49
2017-09-18T02:53:26.222Z,951.5
2017-09-18T02:54:26.211Z,951.5
2017-09-18T02:55:26.194Z,951.56
2017-09-18T02:56:26.182Z,951.52
2017-09-18T02:57:26.167Z,951.53
2017-09-18T02:58:26.155Z,951.53
2017-09-18T02:59:26.141Z,951.53
2017-09-18T03:00:26.127Z,951.53
2017-09-18T03:01:26.115Z,951.51
2017-09-18T03:02:26.107Z,951.5
2017-09-18T03:03:26.108Z,951.57
2017-09-18T03:04:26.073Z,951.53
2017-09-18T03:05:26.059Z,951.55
2017-09-18T03:06:26.043Z,951.57
2017-09-18T03:07:26.032Z,951.56
2017-09-18T03:08:26.018Z,951.57
2017-09-18T03:09:26.004Z,951.6
2017-09-18T03:10:26.008Z,951.59
2017-09-18T03:11:25.977Z,951.59
2017-09-18T03:12:25.964Z,951.56
2017-09-18T03:13:25.961Z,951.57
2017-09-18T03:14:25.935Z,951.54
2017-09-18T03:15:25.924Z,951.54
2017-09-18T03:16:25.907Z,951.56
2017-09-18T03:17:25.896Z,951.5
2017-09-18T03:18:25.889Z,951.53
2017-09-18T03:19:25.867Z,951.5
2017-09-18T03:20:25.853Z,951.52
2017-09-18T03:21:25.839Z,951.46
2017-09-18T03:22:25.826Z,951.49
2017-09-18T03:23:25.813Z,951.45
2017-09-18T03:24:25.798Z,951.5
2017-09-18T03:25:25.828Z,951.46
2017-09-18T03:26:25.771Z,951.48
2017-09-18T03:27:25.758Z,951.47
2017-09-18T03:28:25.756Z,951.47
2017-09-18T03:29:25.729Z,951.52
2017-09-18T03:30:25.716Z,951.45
2017-09-18T03:31:25.702Z,951.52
2017-09-18T03:32:25.688Z,951.51
2017-09-18T03:33:25.675Z,951.5
2017-09-18T03:34:25.660Z,951.51
2017-09-18T03:35:25.645Z,951.48
2017-09-18T03:36:25.632Z,951.54
2017-09-18T03:37:25.619Z,951.52
2017-09-18T03:38:25.634Z,951.53
2017-09-18T03:39:25.618Z,951.54
2017-09-18T03:40:25.578Z,951.55
2017-09-18T03:41:25.567Z,951.56
2017-09-18T03:42:25.560Z,951.58
2017-09-18T03:43:25.536Z,951.59
2017-09-18T03:44:25.544Z,951.6
2017-09-18T03:45:25.509Z,951.61
2017-09-18T03:46:25.495Z,951.64
2017-09-18T03:47:25.482Z,951.66
2017-09-18T03:48:25.468Z,951.65
2017-09-18T03:49:25.474Z,951.64
2017-09-18T03:50:25.440Z,951.63
2017-09-18T03:51:25.426Z,951.67
2017-09-18T03:52:25.422Z,951.7
2017-09-18T03:53:25.399Z,951.69
2017-09-18T03:54:25.402Z,951.73
2017-09-18T03:55:25.372Z,951.68
2017-09-18T03:56:25.357Z,951.72
2017-09-18T03:57:25.343Z,951.73
2017-09-18T03:58:25.330Z,951.69
2017-09-18T03:59:25.316Z,951.7
2017-09-18T04:00:25.302Z,951.71
2017-09-18T04:01:25.288Z,951.71
2017-09-18T04:02:25.274Z,951.69
2017-09-18T04:03:25.261Z,951.66
2017-09-18T04:04:25.248Z,951.7
2017-09-18T04:05:25.233Z,951.71
2017-09-18T04:06:25.220Z,951.66
2017-09-18T04:07:25.206Z,951.68
2017-09-18T04:08:25.191Z,951.65
2017-09-18T04:09:25.178Z,951.67
2017-09-18T04:10:25.164Z,951.66
2017-09-18T04:11:25.150Z,951.68
2017-09-18T04:12:25.136Z,951.69
2017-09-18T04:13:25.121Z,951.69
2017-09-18T04:14:25.112Z,951.66
2017-09-18T04:15:25.116Z,951.65
2017-09-18T04:16:25.080Z,951.64
2017-09-18T04:17:25.067Z,951.65
2017-09-18T04:18:25.055Z,951.62
2017-09-18T04:19:25.043Z,951.64
2017-09-18T04:20:25.789Z,951.64
2017-09-18T04:21:25.011Z,951.61
2017-09-18T04:22:24.997Z,951.68
2017-09-18T04:23:25.005Z,951.64
2017-09-18T04:24:24.970Z,951.65
2017-09-18T04:25:24.957Z,951.67
2017-09-18T04:26:24.942Z,951.68
2017-09-18T04:27:24.928Z,951.67
2017-09-18T04:28:24.915Z,951.67
2017-09-18T04:29:24.902Z,951.64
2017-09-18T04:30:24.887Z,951.66
2017-09-18T04:31:24.872Z,951.65
2017-09-18T04:32:24.859Z,951.68
2017-09-18T04:33:24.844Z,951.73
2017-09-18T04:34:24.832Z,951.74
2017-09-18T04:35:24.823Z,951.74
2017-09-18T04:36:24.806Z,951.79
2017-09-18T04:37:24.789Z,951.8
2017-09-18T04:38:24.776Z,951.78
2017-09-18T04:39:24.762Z,951.87
2017-09-18T04:40:24.749Z,951.89
2017-09-18T04:41:24.734Z,951.84
2017-09-18T04:42:24.721Z,951.83
2017-09-18T04:43:24.708Z,951.85
2017-09-18T04:44:24.692Z,951.86
2017-09-18T04:45:24.686Z,951.87
2017-09-18T04:46:24.665Z,951.9
2017-09-18T04:47:24.652Z,951.9
2017-09-18T04:48:24.636Z,951.95
2017-09-18T04:49:24.624Z,951.95
2017-09-18T04:50:24.614Z,951.95
2017-09-18T04:51:24.598Z,951.96
2017-09-18T04:52:24.583Z,951.96
2017-09-18T04:53:24.569Z,952.01
2017-09-18T04:54:24.574Z,952
2017-09-18T04:55:24.542Z,952
2017-09-18T04:56:24.548Z,952
2017-09-18T04:57:24.515Z,952.04
2017-09-18T04:58:24.502Z,952.01
2017-09-18T04:59:24.487Z,952.03
2017-09-18T05:00:24.474Z,952.06
2017-09-18T05:01:24.463Z,952.09
2017-09-18T05:02:24.447Z,952.04
2017-09-18T05:03:24.432Z,952.04
2017-09-18T05:04:24.421Z,952.03
2017-09-18T05:05:24.406Z,952.05
2017-09-18T05:06:24.405Z,952.1
2017-09-18T05:07:24.379Z,952.11
2017-09-18T05:08:24.366Z,952.09
2017-09-18T05:09:24.353Z,952.12
2017-09-18T05:10:24.339Z,952.12
2017-09-18T05:11:24.326Z,952.13
2017-09-18T05:12:24.314Z,952.1
2017-09-18T05:13:24.502Z,952.12
2017-09-18T05:14:24.287Z,952.16
2017-09-18T05:15:24.272Z,952.18
2017-09-18T05:16:24.259Z,952.2
2017-09-18T05:17:24.247Z,952.15
2017-09-18T05:18:24.234Z,952.17
2017-09-18T05:19:24.235Z,952.16
2017-09-18T05:20:24.208Z,952.15
2017-09-18T05:21:24.195Z,952.21
2017-09-18T05:22:24.183Z,952.22
2017-09-18T05:23:24.169Z,952.27
2017-09-18T05:24:24.157Z,952.22
2017-09-18T05:25:24.145Z,952.24
2017-09-18T05:26:24.132Z,952.28
2017-09-18T05:27:24.118Z,952.25
2017-09-18T05:28:24.106Z,952.29
2017-09-18T05:29:24.093Z,952.25
2017-09-18T05:30:24.081Z,952.22
2017-09-18T05:31:24.071Z,952.23
2017-09-18T05:32:24.055Z,952.25
2017-09-18T05:33:24.055Z,952.29
2017-09-18T05:34:24.037Z,952.27
2017-09-18T05:35:24.019Z,952.31
2017-09-18T05:36:24.009Z,952.32
2017-09-18T05:37:23.993Z,952.33
2017-09-18T05:38:23.982Z,952.36
2017-09-18T05:39:23.968Z,952.31
2017-09-18T05:40:23.956Z,952.33
2017-09-18T05:41:23.946Z,952.34
2017-09-18T05:42:23.934Z,952.3
2017-09-18T05:43:23.919Z,952.32
2017-09-18T05:44:23.908Z,952.31
2017-09-18T05:45:23.912Z,952.41
2017-09-18T05:46:23.884Z,952.4
2017-09-18T05:47:23.872Z,952.44
2017-09-18T05:48:23.860Z,952.42
2017-09-18T05:49:23.849Z,952.41
2017-09-18T05:50:23.836Z,952.42
2017-09-18T05:51:23.860Z,952.43
2017-09-18T05:52:23.812Z,952.46
2017-09-18T05:53:23.801Z,952.47
2017-09-18T05:54:23.789Z,952.44
2017-09-18T05:55:23.777Z,952.47
2017-09-18T05:56:23.766Z,952.5
2017-09-18T05:57:23.753Z,952.5
2017-09-18T05:58:23.742Z,952.49
2017-09-18T05:59:23.734Z,952.52
2017-09-18T06:00:23.721Z,952.54
2017-09-18T06:01:23.706Z,952.49
2017-09-18T06:02:23.707Z,952.51
2017-09-18T06:03:23.683Z,952.48
2017-09-18T06:04:23.673Z,952.5
2017-09-18T06:05:23.710Z,952.5
2017-09-18T06:06:23.649Z,952.52
2017-09-18T06:07:23.646Z,952.49
2017-09-18T06:08:23.642Z,952.49
2017-09-18T06:09:23.614Z,952.51
2017-09-18T06:10:23.602Z,952.52
2017-09-18T06:11:23.602Z,952.51
2017-09-18T06:12:23.579Z,952.54
2017-09-18T06:13:23.580Z,952.57
2017-09-18T06:14:23.558Z,952.56
2017-09-18T06:15:23.546Z,952.55
2017-09-18T06:16:23.534Z,952.59
2017-09-18T06:17:23.523Z,952.6
2017-09-18T06:18:23.513Z,952.62
2017-09-18T06:19:23.514Z,952.64
2017-09-18T06:20:23.489Z,952.63
2017-09-18T06:21:23.479Z,952.63
2017-09-18T06:22:23.467Z,952.63
2017-09-18T06:23:23.455Z,952.63
2017-09-18T06:24:23.444Z,952.67
2017-09-18T06:25:23.433Z,952.68
2017-09-18T06:26:23.421Z,952.67
2017-09-18T06:27:23.411Z,952.67
2017-09-18T06:28:23.399Z,952.64
2017-09-18T06:29:23.400Z,952.67
2017-09-18T06:30:23.393Z,952.64
2017-09-18T06:31:23.366Z,952.67
2017-09-18T06:32:23.356Z,952.66
2017-09-18T06:33:23.344Z,952.67
2017-09-18T06:34:23.333Z,952.66
2017-09-18T06:35:23.321Z,952.68
2017-09-18T06:36:23.314Z,952.69
2017-09-18T06:37:23.298Z,952.67
2017-09-18T06:38:23.287Z,952.69
2017-09-18T06:39:23.276Z,952.69
2017-09-18T06:40:23.265Z,952.69
2017-09-18T06:41:23.253Z,952.65
2017-09-18T06:42:23.243Z,952.68
2017-09-18T06:43:23.239Z,952.71
2017-09-18T06:44:23.221Z,952.72
2017-09-18T06:45:23.209Z,952.72
2017-09-18T06:46:23.198Z,952.78
2017-09-18T06:47:23.188Z,952.76
2017-09-18T06:48:23.179Z,952.79
2017-09-18T06:49:23.173Z,952.81
2017-09-18T06:50:23.154Z,952.82
2017-09-18T06:51:23.146Z,952.83
2017-09-18T06:52:23.131Z,952.89
2017-09-18T06:53:23.121Z,952.82
2017-09-18T06:54:23.110Z,952.83
2017-09-18T06:55:23.108Z,952.84
2017-09-18T06:56:23.088Z,952.82
2017-09-18T06:57:23.076Z,952.83
2017-09-18T06:58:23.066Z,952.88
2017-09-18T06:59:23.073Z,952.9
2017-09-18T07:00:23.046Z,952.88
2017-09-18T07:01:23.036Z,952.94
2017-09-18T07:02:23.027Z,952.9
2017-09-18T07:03:23.014Z,952.93
2017-09-18T07:04:23.005Z,952.94
2017-09-18T07:05:23.007Z,952.94
2017-09-18T07:06:22.984Z,952.87
2017-09-18T07:07:22.972Z,952.88
2017-09-18T07:08:22.962Z,952.91
2017-09-18T07:09:22.953Z,952.9
2017-09-18T07:10:22.962Z,952.88
2017-09-18T07:11:22.940Z,952.9
2017-09-18T07:12:22.921Z,952.93
2017-09-18T07:13:22.912Z,952.99
2017-09-18T07:14:22.901Z,953.03
2017-09-18T07:15:22.891Z,953.01
2017-09-18T07:16:22.882Z,953.01
2017-09-18T07:17:22.900Z,953.02
2017-09-18T07:18:22.862Z,953.02
2017-09-18T07:19:22.852Z,953.04
2017-09-18T07:20:22.843Z,953.08
2017-09-18T07:21:22.832Z,953.07
2017-09-18T07:22:22.823Z,953.15
2017-09-18T07:23:22.813Z,953.11
2017-09-18T07:24:22.803Z,953.1
2017-09-18T07:25:22.795Z,953.1
2017-09-18T07:26:22.783Z,953.11
2017-09-18T07:27:22.797Z,953.09
2017-09-18T07:28:22.765Z,953.11
2017-09-18T07:29:22.754Z,953.13
2017-09-18T07:30:22.746Z,953.14
2017-09-18T07:31:22.737Z,953.13
2017-09-18T07:32:22.728Z,953.16
2017-09-18T07:33:22.725Z,953.17
2017-09-18T07:34:22.709Z,953.17
2017-09-18T07:35:22.700Z,953.23
2017-09-18T07:36:22.689Z,953.19
2017-09-18T07:37:22.680Z,953.18
2017-09-18T07:38:22.672Z,953.18
2017-09-18T07:39:22.664Z,953.2
2017-09-18T07:40:22.662Z,953.25
2017-09-18T07:41:22.642Z,953.24
2017-09-18T07:42:22.635Z,953.27
2017-09-18T07:43:22.628Z,953.27
2017-09-18T07:44:22.615Z,953.28
2017-09-18T07:45:22.605Z,953.32
2017-09-18T07:46:22.597Z,953.33
2017-09-18T07:47:22.588Z,953.3
2017-09-18T07:48:22.579Z,953.29
2017-09-18T07:49:22.570Z,953.32
2017-09-18T07:50:22.562Z,953.33
2017-09-18T07:51:22.551Z,953.33
2017-09-18T07:52:22.542Z,953.34
2017-09-18T07:53:22.534Z,953.33
2017-09-18T07:54:22.524Z,953.32
2017-09-18T07:55:22.517Z,953.32
2017-09-18T07:56:22.508Z,953.31
2017-09-18T07:57:22.498Z,953.32
2017-09-18T07:58:22.489Z,953.33
2017-09-18T07:59:22.479Z,953.32
2017-09-18T08:00:22.472Z,953.34
2017-09-18T08:01:22.484Z,953.34
2017-09-18T08:02:22.453Z,953.32
2017-09-18T08:03:22.444Z,953.32
2017-09-18T08:04:22.436Z,953.35
2017-09-18T08:05:22.427Z,953.33
2017-09-18T08:06:22.418Z,953.3
2017-09-18T08:07:22.410Z,953.36
2017-09-18T08:08:22.401Z,953.34
2017-09-18T08:09:22.393Z,953.35
2017-09-18T08:10:22.382Z,953.34
2017-09-18T08:11:22.375Z,953.33
2017-09-18T08:12:22.366Z,953.33
2017-09-18T08:13:22.359Z,953.34
2017-09-18T08:14:22.349Z,953.33
2017-09-18T08:15:22.340Z,953.32
2017-09-18T08:16:22.334Z,953.31
2017-09-18T08:17:22.323Z,953.33
2017-09-18T08:18:22.318Z,953.35
2017-09-18T08:19:22.307Z,953.41
2017-09-18T08:20:22.302Z,953.39
2017-09-18T08:21:22.290Z,953.37
2017-09-18T08:22:22.281Z,953.35
2017-09-18T08:23:22.273Z,953.38
2017-09-18T08:24:22.264Z,953.37
2017-09-18T08:25:22.256Z,953.38
2017-09-18T08:26:22.249Z,953.37
2017-09-18T08:27:22.239Z,953.36
2017-09-18T08:28:22.231Z,953.4
2017-09-18T08:29:22.223Z,953.36
2017-09-18T08:30:22.216Z,953.41
2017-09-18T08:31:22.206Z,953.38
2017-09-18T08:32:22.222Z,953.38
2017-09-18T08:33:22.190Z,953.41
2017-09-18T08:34:22.182Z,953.39
2017-09-18T08:35:22.174Z,953.4
2017-09-18T08:36:22.165Z,953.41
2017-09-18T08:37:22.158Z,953.42
2017-09-18T08:38:22.149Z,953.39
2017-09-18T08:39:22.140Z,953.4
2017-09-18T08:40:22.133Z,953.4
2017-09-18T08:41:22.124Z,953.44
2017-09-18T08:42:22.115Z,953.43
2017-09-18T08:43:22.106Z,953.39
2017-09-18T08:44:22.098Z,953.4
2017-09-18T08:45:22.089Z,953.47
2017-09-18T08:46:22.080Z,953.44
2017-09-18T08:47:22.073Z,953.45
2017-09-18T08:48:22.064Z,953.47
2017-09-18T08:49:22.067Z,953.41
2017-09-18T08:50:22.046Z,953.42
2017-09-18T08:51:22.037Z,953.44
2017-09-18T08:52:22.029Z,953.43
2017-09-18T08:53:22.021Z,953.44
2017-09-18T08:54:22.012Z,953.46
2017-09-18T08:55:22.012Z,953.43
2017-09-18T08:56:21.995Z,953.43
2017-09-18T08:57:22.002Z,953.46
2017-09-18T08:58:21.979Z,953.44
2017-09-18T08:59:21.970Z,953.41
2017-09-18T09:00:21.962Z,953.42
2017-09-18T09:01:21.954Z,953.42
2017-09-18T09:02:21.949Z,953.42
2017-09-18T09:03:21.938Z,953.42
2017-09-18T09:04:21.952Z,953.41
2017-09-18T09:05:21.922Z,953.43
2017-09-18T09:06:21.914Z,953.39
2017-09-18T09:07:21.906Z,953.43
2017-09-18T09:08:21.898Z,953.44
2017-09-18T09:09:21.891Z,953.41
2017-09-18T09:10:21.884Z,953.45
2017-09-18T09:11:21.892Z,953.4
2017-09-18T09:12:21.869Z,953.44
2017-09-18T09:13:21.860Z,953.43
2017-09-18T09:14:21.854Z,953.47
2017-09-18T09:15:21.846Z,953.51
2017-09-18T09:16:21.838Z,953.49
2017-09-18T09:17:21.832Z,953.48
2017-09-18T09:18:21.823Z,953.55
2017-09-18T09:19:21.817Z,953.53
2017-09-18T09:20:21.830Z,953.54
2017-09-18T09:21:21.801Z,953.53
2017-09-18T09:22:21.795Z,953.56
2017-09-18T09:23:21.786Z,953.57
2017-09-18T09:24:21.779Z,953.57
2017-09-18T09:25:21.776Z,953.57
2017-09-18T09:26:21.772Z,953.6
2017-09-18T09:27:21.759Z,953.56
2017-09-18T09:28:21.751Z,953.58
2017-09-18T09:29:21.744Z,953.59
2017-09-18T09:30:21.736Z,953.62
2017-09-18T09:31:21.741Z,953.62
2017-09-18T09:32:21.723Z,953.6
2017-09-18T09:33:21.714Z,953.58
2017-09-18T09:34:21.708Z,953.57
2017-09-18T09:35:21.701Z,953.65
2017-09-18T09:36:21.718Z,953.63
2017-09-18T09:37:21.687Z,953.61
2017-09-18T09:38:21.680Z,953.62
2017-09-18T09:39:21.672Z,953.63
2017-09-18T09:40:21.666Z,953.64
2017-09-18T09:41:21.658Z,953.6
2017-09-18T09:42:21.652Z,953.6
2017-09-18T09:43:21.691Z,953.62
2017-09-18T09:44:21.661Z,953.59
2017-09-18T09:45:21.634Z,953.65
2017-09-18T09:46:21.626Z,953.66
2017-09-18T09:47:21.616Z,953.65
2017-09-18T09:48:21.607Z,953.62
2017-09-18T09:49:21.601Z,953.64
2017-09-18T09:50:21.595Z,953.64
2017-09-18T09:51:21.587Z,953.65
2017-09-18T09:52:21.582Z,953.7
2017-09-18T09:53:21.574Z,953.7
2017-09-18T09:54:21.566Z,953.68
2017-09-18T09:55:21.557Z,953.66
2017-09-18T09:56:21.551Z,953.66
2017-09-18T09:57:21.545Z,953.65
2017-09-18T09:58:21.561Z,953.63
2017-09-18T09:59:21.533Z,953.63
2017-09-18T10:00:21.522Z,953.6
2017-09-18T10:01:21.518Z,953.63
2017-09-18T10:02:21.508Z,953.59
2017-09-18T10:03:21.502Z,953.64
2017-09-18T10:04:21.498Z,953.56
2017-09-18T10:05:21.490Z,953.58
2017-09-18T10:06:21.482Z,953.62
2017-09-18T10:07:21.474Z,953.57
2017-09-18T10:08:21.471Z,953.51
2017-09-18T10:09:21.464Z,953.53
2017-09-18T10:10:21.457Z,953.55
2017-09-18T10:11:21.452Z,953.59
2017-09-18T10:12:21.449Z,953.56
2017-09-18T10:13:21.439Z,953.58
2017-09-18T10:14:21.431Z,953.6
2017-09-18T10:15:21.425Z,953.58
2017-09-18T10:16:21.419Z,953.59
2017-09-18T10:17:21.434Z,953.59
2017-09-18T10:18:21.407Z,953.6
2017-09-18T10:19:21.407Z,953.57
2017-09-18T10:20:21.394Z,953.56
2017-09-18T10:21:21.387Z,953.55
2017-09-18T10:22:21.382Z,953.6
2017-09-18T10:23:21.376Z,953.62
2017-09-18T10:24:21.369Z,953.61
2017-09-18T10:25:21.362Z,953.59
2017-09-18T10:26:21.359Z,953.61
2017-09-18T10:27:21.363Z,953.59
2017-09-18T10:28:21.345Z,953.58
2017-09-18T10:29:21.348Z,953.57
2017-09-18T10:30:21.347Z,953.57
2017-09-18T10:31:21.326Z,953.63
2017-09-18T10:32:21.319Z,953.61
2017-09-18T10:33:21.314Z,953.56
2017-09-18T10:34:21.307Z,953.59
2017-09-18T10:35:21.301Z,953.56
2017-09-18T10:36:21.295Z,953.6
2017-09-18T10:37:21.289Z,953.54
2017-09-18T10:38:21.283Z,953.58
2017-09-18T10:39:21.276Z,953.59
2017-09-18T10:40:21.270Z,953.61
2017-09-18T10:41:21.266Z,953.56
2017-09-18T10:42:21.258Z,953.64
2017-09-18T10:43:21.251Z,953.57
2017-09-18T10:44:21.247Z,953.56
2017-09-18T10:45:21.243Z,953.57
2017-09-18T10:46:21.239Z,953.58
2017-09-18T10:47:21.230Z,953.59
2017-09-18T10:48:21.245Z,953.58
2017-09-18T10:49:21.220Z,953.56
2017-09-18T10:50:21.212Z,953.57
2017-09-18T10:51:21.208Z,953.59
2017-09-18T10:52:21.201Z,953.59
2017-09-18T10:53:21.195Z,953.58
2017-09-18T10:54:21.191Z,953.57
2017-09-18T10:55:21.185Z,953.58
2017-09-18T10:56:21.197Z,953.57
2017-09-18T10:57:21.174Z,953.55
2017-09-18T10:58:21.169Z,953.54
2017-09-18T10:59:21.164Z,953.53
2017-09-18T11:00:21.159Z,953.52
2017-09-18T11:01:21.153Z,953.51
2017-09-18T11:02:21.147Z,953.52
2017-09-18T11:03:21.143Z,953.54
2017-09-18T11:04:21.135Z,953.51
2017-09-18T11:05:21.148Z,953.55
2017-09-18T11:06:21.125Z,953.49
2017-09-18T11:07:21.119Z,953.5
2017-09-18T11:08:21.116Z,953.53
2017-09-18T11:09:21.109Z,953.58
2017-09-18T11:10:21.102Z,953.57
2017-09-18T11:11:21.098Z,953.54
2017-09-18T11:12:21.093Z,953.54
2017-09-18T11:13:21.086Z,953.5
2017-09-18T11:14:21.080Z,953.54
2017-09-18T11:15:21.077Z,953.52
2017-09-18T11:16:21.072Z,953.54
2017-09-18T11:17:21.065Z,953.5
2017-09-18T11:18:21.060Z,953.5
2017-09-18T11:19:21.055Z,953.5
2017-09-18T11:20:21.049Z,953.49
2017-09-18T11:21:21.062Z,953.43
2017-09-18T11:22:21.039Z,953.47
2017-09-18T11:23:21.033Z,953.4
2017-09-18T11:24:21.028Z,953.43
2017-09-18T11:25:21.022Z,953.45
2017-09-18T11:26:21.038Z,953.43
2017-09-18T11:27:21.013Z,953.43
2017-09-18T11:28:21.007Z,953.41
2017-09-18T11:29:21.004Z,953.43
2017-09-18T11:30:20.997Z,953.42
2017-09-18T11:31:20.992Z,953.43
2017-09-18T11:32:20.996Z,953.42
2017-09-18T11:33:20.982Z,953.43
2017-09-18T11:34:20.975Z,953.42
2017-09-18T11:35:20.971Z,953.37
2017-09-18T11:36:20.967Z,953.43
2017-09-18T11:37:20.961Z,953.42
2017-09-18T11:38:20.956Z,953.42
2017-09-18T11:39:20.980Z,953.37
2017-09-18T11:40:20.949Z,953.39
2017-09-18T11:41:20.942Z,953.44
2017-09-18T11:42:20.940Z,953.43
2017-09-18T11:43:20.934Z,953.41
2017-09-18T11:44:20.930Z,953.39
2017-09-18T11:45:20.925Z,953.37
2017-09-18T11:46:20.921Z,953.42
2017-09-18T11:47:20.915Z,953.35
2017-09-18T11:48:20.910Z,953.4
2017-09-18T11:49:20.907Z,953.34
2017-09-18T11:50:20.902Z,953.35
2017-09-18T11:51:20.905Z,953.34
2017-09-18T11:52:20.892Z,953.32
2017-09-18T11:53:20.885Z,953.37
2017-09-18T11:54:20.882Z,953.36
2017-09-18T11:55:20.879Z,953.31
2017-09-18T11:56:20.873Z,953.25
2017-09-18T11:57:20.868Z,953.28
2017-09-18T11:58:20.863Z,953.36
2017-09-18T11:59:20.857Z,953.38
2017-09-18T12:00:20.854Z,953.34
2017-09-18T12:01:20.865Z,953.29
2017-09-18T12:02:20.846Z,953.3
2017-09-18T12:03:20.842Z,953.29
2017-09-18T12:04:20.837Z,953.25
2017-09-18T12:05:20.833Z,953.3
2017-09-18T12:06:20.830Z,953.25
2017-09-18T12:07:20.823Z,953.25
2017-09-18T12:08:20.821Z,953.25
2017-09-18T12:09:20.816Z,953.3
2017-09-18T12:10:20.813Z,953.25
2017-09-18T12:11:20.808Z,953.26
2017-09-18T12:12:20.804Z,953.25
2017-09-18T12:13:20.799Z,953.26
2017-09-18T12:14:20.797Z,953.23
2017-09-18T12:15:20.796Z,953.32
2017-09-18T12:16:20.789Z,953.28
2017-09-18T12:17:20.803Z,953.29
2017-09-18T12:18:20.779Z,953.29
2017-09-18T12:19:20.776Z,953.27
2017-09-18T12:20:20.772Z,953.29
2017-09-18T12:21:20.768Z,953.26
2017-09-18T12:22:20.764Z,953.23
2017-09-18T12:23:20.760Z,953.26
2017-09-18T12:24:20.757Z,953.27
2017-09-18T12:25:20.750Z,953.26
2017-09-18T12:26:20.746Z,953.28
2017-09-18T12:27:20.743Z,953.23
2017-09-18T12:28:20.738Z,953.24
2017-09-18T12:29:20.734Z,953.24
2017-09-18T12:30:20.743Z,953.33
2017-09-18T12:31:20.729Z,953.32